Texarkana, AR

11:24 PM CDT on April 28, 2017 (GMT -0500)
Texarkana Regional-Webb | | Change Station
Active Advisory: Lake Wind Advisory

Elev 387 ft 33.45 °N, 93.99 °W | Updated 31 minutes ago

Overcast
Overcast
80 °F
Feels Like 84 °F
N
10
Wind Variable Wind from South

Today
High -- | Low -- °F
--% Chance of Precip.
Yesterday
High -- | Low -- °F
Precip. -- in
Pressure 29.72 in
Visibility 9.0 miles
Clouds Overcast 3000 ft
Heat Index 84 °F
Dew Point 72 °F
Humidity 76%
Rainfall 0.00 in
Snow Depth Not available.
6:30 AM 7:56 PM
Waxing Crescent, 10% visible
METAR KTXK 290353Z AUTO 17009KT 9SM OVC030 27/22 A2974 RMK AO2 SLP064 T02670222
Pressure 29.72 in
Visibility 9.0 miles
Clouds Overcast 3000 ft
Heat Index 84 °F
Dew Point 72 °F
Humidity 76%
Rainfall 0.00 in
Snow Depth Not available.
6:30 AM 7:56 PM
Waxing Crescent, 10% visible
METAR KTXK 290353Z AUTO 17009KT 9SM OVC030 27/22 A2974 RMK AO2 SLP064 T02670222

Get Your Daily Forecast Email!

Thanks for signing up!

Be on the lookout for a verification email in your inbox.

You'll start receiving severe weather alerts in your inbox..

×

10-Day Weather Forecast

Almanac

Astronomy

Apr. 28, 2017 Rise Set
Actual Time
Civil Twilight
Nautical Twilight
Astronomical Twilight
Moon
Length of Visible Light
Length of Day
Tomorrow will be .
, % of the Moon is Illuminated

Today's Extremes

State Highs State Lows

Community

WunderPhotos

WunderBlog® & News

Nearby

Air Quality

  Air Quality AQ Index Pollutant
Not available.

Snow Depth

Station Depth Elevation

Earthquake Activity

City Distance Mag. Time & Date
Minimum magnitude displayed is 2.5.

Coastal Water Temperatures

Place Temperature

Stations

Nearby Weather Stations

Station Location Temp. Windchill Dew Point Humidity Wind Precip. Elev Updated Type
                   

Watches & Warnings

Lake Wind Advisory
Issued: 3:16 PM CDT Apr. 28, 2017 – National Weather Service

... Lake Wind Advisory now in effect until 7 PM CDT Saturday...

* event... an enhanced pressure gradient across the Southern Plains
will result in periods of southerly winds 15- 20 mph with gusts
to 30-35 mph over much of East Texas, southern Arkansas, and
north Louisiana tonight and Saturday.

* Timing... from 11 am CDT this morning to 7 PM CDT Saturday.

* Impact... boaters should exercise caution on area lakes due to
rough chop conditions.

Precautionary/preparedness actions...

A lake Wind Advisory indicates that winds will cause rough chop
on area lakes. Small boats will be especially prone to capsizing.



05